This demonstration page uses our WeatherBlox Daily Observations layout. Learn more.

39.29038, -76.61219

Hourly Observations for July 26, 2015

Temp ( °F °C ) Dew Point ( °F °C ) Humidity (%) Winds ( mph kmh ) Pressure ( in mb ) Visibility ( mi km ) Precip ( " mm )
12:54 am 00:54 Clear 77 25 61 16 57 57 undefined N/A 30 1016 N/A 0 0
1:54 am 01:54 undefined 75 24 61 16 61 61 undefined N/A 30 1016 N/A 0 0
2:54 am 02:54 Mostly Clear 75 24 61 16 61 61 undefined N/A 30 1016 N/A 0 0
3:54 am 03:54 undefined 73 23 61 16 65 65 undefined N/A 29.97 1015 N/A 0 0
4:54 am 04:54 undefined 73 23 61 16 65 65 undefined N/A 29.97 1015 N/A 0 0
5:54 am 05:54 Clear 72 22 61 16 69 69 undefined N/A 29.97 1015 N/A 0 0
6:54 am 06:54 undefined 73 23 63 17 69 69 undefined N/A 30 1016 N/A 0 0
7:54 am 07:54 Cloudy 75 24 63 17 65 65 undefined N/A 30 1016 N/A 0 0
8:54 am 08:54 Mostly Sunny 79 26 63 17 58 58 undefined N/A 30 1016 N/A 0 0
9:54 am 09:54 Sunny 81 27 63 17 54 54 undefined N/A 30 1016 N/A 0 0
10:54 am 10:54 undefined 82 28 64 18 55 55 undefined N/A 30 1016 N/A 0 0
11:54 am 11:54 undefined 84 29 64 18 51 51 undefined N/A 30 1016 N/A 0 0
12:54 pm 12:54 undefined 88 31 64 18 46 46 undefined N/A 29.97 1015 N/A 0 0
1:54 pm 13:54 undefined 88 31 64 18 46 46 undefined N/A 29.97 1015 N/A 0 0
2:54 pm 14:54 undefined 88 31 66 19 49 49 undefined N/A 29.97 1015 N/A 0 0
3:54 pm 15:54 undefined 90 32 66 19 46 46 undefined N/A 29.94 1014 N/A 0 0
4:54 pm 16:54 Mostly Sunny 88 31 66 19 49 49 undefined N/A 29.94 1014 N/A 0 0
5:54 pm 17:54 Mostly Sunny 86 30 66 19 52 52 undefined N/A 29.94 1014 N/A 0 0
6:54 pm 18:54 Mostly Sunny 84 29 66 19 55 55 undefined N/A 29.94 1014 N/A 0 0
7:54 pm 19:54 undefined 82 28 66 19 58 58 undefined N/A 29.97 1015 N/A 0 0
8:54 pm 20:54 undefined 82 28 66 19 58 58 undefined N/A 29.97 1015 N/A 0 0
9:54 pm 21:54 Cloudy 81 27 66 19 62 62 undefined N/A 29.97 1015 N/A 0 0
10:54 pm 22:54 undefined 81 27 64 18 58 58 undefined N/A 29.97 1015 N/A 0 0
11:54 pm 23:54 Mostly Cloudy 81 27 64 18 58 58 undefined N/A 29.97 1015 N/A 0 0

Powered by AerisWeather